sensor_id;sensor_type;location;lat;lon;timestamp;temperature;humidity
14873;DHT22;7528;48.576;19.122;2023-10-09T00:03:38;10.70;56.30
14873;DHT22;7528;48.576;19.122;2023-10-09T00:08:40;10.70;56.00
14873;DHT22;7528;48.576;19.122;2023-10-09T00:13:47;10.70;56.20
14873;DHT22;7528;48.576;19.122;2023-10-09T00:18:54;10.70;56.50
14873;DHT22;7528;48.576;19.122;2023-10-09T00:23:56;10.70;56.70
14873;DHT22;7528;48.576;19.122;2023-10-09T00:29:00;10.60;56.80
14873;DHT22;7528;48.576;19.122;2023-10-09T00:34:07;10.70;56.70
14873;DHT22;7528;48.576;19.122;2023-10-09T00:39:16;10.60;56.80
14873;DHT22;7528;48.576;19.122;2023-10-09T00:44:31;10.70;56.90
14873;DHT22;7528;48.576;19.122;2023-10-09T00:49:40;10.70;56.90
14873;DHT22;7528;48.576;19.122;2023-10-09T00:54:45;10.70;56.80
14873;DHT22;7528;48.576;19.122;2023-10-09T00:59:54;10.80;56.80
14873;DHT22;7528;48.576;19.122;2023-10-09T01:05:03;10.70;56.60
14873;DHT22;7528;48.576;19.122;2023-10-09T01:10:13;10.80;56.40
14873;DHT22;7528;48.576;19.122;2023-10-09T01:15:17;10.80;56.50
14873;DHT22;7528;48.576;19.122;2023-10-09T01:20:38;10.80;56.20
14873;DHT22;7528;48.576;19.122;2023-10-09T01:25:47;10.80;56.50
14873;DHT22;7528;48.576;19.122;2023-10-09T01:30:50;10.90;56.50
14873;DHT22;7528;48.576;19.122;2023-10-09T01:35:53;10.90;57.00
14873;DHT22;7528;48.576;19.122;2023-10-09T01:41:01;10.90;56.50
14873;DHT22;7528;48.576;19.122;2023-10-09T01:46:07;11.00;57.20
14873;DHT22;7528;48.576;19.122;2023-10-09T01:51:13;11.00;57.20
14873;DHT22;7528;48.576;19.122;2023-10-09T01:56:19;11.00;56.80
14873;DHT22;7528;48.576;19.122;2023-10-09T02:01:21;11.00;56.30
14873;DHT22;7528;48.576;19.122;2023-10-09T02:06:25;10.90;56.10
14873;DHT22;7528;48.576;19.122;2023-10-09T02:11:34;10.80;56.20
14873;DHT22;7528;48.576;19.122;2023-10-09T02:16:42;10.70;56.70
14873;DHT22;7528;48.576;19.122;2023-10-09T02:21:45;10.60;57.40
14873;DHT22;7528;48.576;19.122;2023-10-09T02:26:48;10.60;57.50
14873;DHT22;7528;48.576;19.122;2023-10-09T02:32:05;10.50;57.70
14873;DHT22;7528;48.576;19.122;2023-10-09T02:37:17;10.50;57.40
14873;DHT22;7528;48.576;19.122;2023-10-09T02:42:25;10.50;57.60
14873;DHT22;7528;48.576;19.122;2023-10-09T02:47:29;10.40;58.20
14873;DHT22;7528;48.576;19.122;2023-10-09T02:52:38;10.40;58.30
14873;DHT22;7528;48.576;19.122;2023-10-09T02:57:43;10.40;58.60
14873;DHT22;7528;48.576;19.122;2023-10-09T03:02:46;10.50;58.70
14873;DHT22;7528;48.576;19.122;2023-10-09T03:07:50;10.50;58.70
14873;DHT22;7528;48.576;19.122;2023-10-09T03:12:55;10.50;58.80
14873;DHT22;7528;48.576;19.122;2023-10-09T03:18:03;10.60;59.30
14873;DHT22;7528;48.576;19.122;2023-10-09T03:23:05;10.60;59.60
14873;DHT22;7528;48.576;19.122;2023-10-09T03:28:12;10.60;59.30
14873;DHT22;7528;48.576;19.122;2023-10-09T03:33:16;10.60;59.10
14873;DHT22;7528;48.576;19.122;2023-10-09T03:38:19;10.70;59.30
14873;DHT22;7528;48.576;19.122;2023-10-09T03:43:23;10.70;59.30
14873;DHT22;7528;48.576;19.122;2023-10-09T03:48:25;10.60;59.40
14873;DHT22;7528;48.576;19.122;2023-10-09T03:53:33;10.60;59.70
14873;DHT22;7528;48.576;19.122;2023-10-09T03:58:38;10.60;59.40
14873;DHT22;7528;48.576;19.122;2023-10-09T04:03:44;10.60;58.70
14873;DHT22;7528;48.576;19.122;2023-10-09T04:08:46;10.60;59.50
14873;DHT22;7528;48.576;19.122;2023-10-09T04:13:52;10.70;60.90
14873;DHT22;7528;48.576;19.122;2023-10-09T04:18:54;10.60;60.00
14873;DHT22;7528;48.576;19.122;2023-10-09T04:23:58;10.50;60.10
14873;DHT22;7528;48.576;19.122;2023-10-09T04:29:25;10.40;61.70
14873;DHT22;7528;48.576;19.122;2023-10-09T04:34:38;10.50;61.80
14873;DHT22;7528;48.576;19.122;2023-10-09T04:39:49;10.50;63.10
14873;DHT22;7528;48.576;19.122;2023-10-09T04:45:05;10.50;63.40
14873;DHT22;7528;48.576;19.122;2023-10-09T04:50:33;10.60;64.10
14873;DHT22;7528;48.576;19.122;2023-10-09T04:55:46;10.60;64.30
14873;DHT22;7528;48.576;19.122;2023-10-09T05:00:57;10.60;63.90
14873;DHT22;7528;48.576;19.122;2023-10-09T05:06:13;10.60;64.60
14873;DHT22;7528;48.576;19.122;2023-10-09T05:11:48;10.60;64.60
14873;DHT22;7528;48.576;19.122;2023-10-09T05:17:02;10.60;64.10
14873;DHT22;7528;48.576;19.122;2023-10-09T05:22:09;10.60;65.10
14873;DHT22;7528;48.576;19.122;2023-10-09T05:27:18;10.70;65.20
14873;DHT22;7528;48.576;19.122;2023-10-09T05:32:26;10.70;64.80
14873;DHT22;7528;48.576;19.122;2023-10-09T05:37:36;10.70;64.30
14873;DHT22;7528;48.576;19.122;2023-10-09T05:42:44;10.80;63.10
14873;DHT22;7528;48.576;19.122;2023-10-09T05:47:50;10.90;63.60
14873;DHT22;7528;48.576;19.122;2023-10-09T05:52:56;10.90;63.30
14873;DHT22;7528;48.576;19.122;2023-10-09T05:58:27;10.90;63.90
14873;DHT22;7528;48.576;19.122;2023-10-09T06:04:17;11.00;63.20
14873;DHT22;7528;48.576;19.122;2023-10-09T06:09:20;11.00;62.80
14873;DHT22;7528;48.576;19.122;2023-10-09T06:14:39;11.00;62.80
14873;DHT22;7528;48.576;19.122;2023-10-09T06:20:00;10.90;64.00
14873;DHT22;7528;48.576;19.122;2023-10-09T06:25:22;10.90;61.20
14873;DHT22;7528;48.576;19.122;2023-10-09T06:30:34;10.90;61.40
14873;DHT22;7528;48.576;19.122;2023-10-09T06:35:38;11.00;61.60
14873;DHT22;7528;48.576;19.122;2023-10-09T06:40:50;11.10;62.10
14873;DHT22;7528;48.576;19.122;2023-10-09T06:46:15;11.10;63.40
14873;DHT22;7528;48.576;19.122;2023-10-09T06:51:45;11.20;63.80
14873;DHT22;7528;48.576;19.122;2023-10-09T06:56:48;11.30;63.30
14873;DHT22;7528;48.576;19.122;2023-10-09T07:02:15;11.40;63.00
14873;DHT22;7528;48.576;19.122;2023-10-09T07:07:28;11.40;63.50
14873;DHT22;7528;48.576;19.122;2023-10-09T07:12:36;11.30;65.10
14873;DHT22;7528;48.576;19.122;2023-10-09T07:17:43;11.30;65.00
14873;DHT22;7528;48.576;19.122;2023-10-09T07:22:48;11.30;65.00
14873;DHT22;7528;48.576;19.122;2023-10-09T07:27:57;11.30;63.70
14873;DHT22;7528;48.576;19.122;2023-10-09T07:33:05;11.40;63.80
14873;DHT22;7528;48.576;19.122;2023-10-09T07:38:21;11.40;63.60
14873;DHT22;7528;48.576;19.122;2023-10-09T07:43:25;11.30;63.30
14873;DHT22;7528;48.576;19.122;2023-10-09T07:48:29;11.10;64.20
14873;DHT22;7528;48.576;19.122;2023-10-09T07:53:41;11.10;64.80
14873;DHT22;7528;48.576;19.122;2023-10-09T07:58:45;11.00;64.90
14873;DHT22;7528;48.576;19.122;2023-10-09T08:03:50;11.00;65.10
14873;DHT22;7528;48.576;19.122;2023-10-09T08:09:13;11.10;64.60
14873;DHT22;7528;48.576;19.122;2023-10-09T08:14:47;11.10;64.20
14873;DHT22;7528;48.576;19.122;2023-10-09T08:19:51;11.20;63.90
14873;DHT22;7528;48.576;19.122;2023-10-09T08:24:57;11.20;63.50
14873;DHT22;7528;48.576;19.122;2023-10-09T08:30:01;11.30;63.90
14873;DHT22;7528;48.576;19.122;2023-10-09T08:35:29;11.40;63.40
14873;DHT22;7528;48.576;19.122;2023-10-09T08:40:35;11.40;62.70
14873;DHT22;7528;48.576;19.122;2023-10-09T08:45:41;11.30;62.90
14873;DHT22;7528;48.576;19.122;2023-10-09T08:50:46;11.40;62.90
14873;DHT22;7528;48.576;19.122;2023-10-09T08:55:51;11.40;63.10
14873;DHT22;7528;48.576;19.122;2023-10-09T09:00:54;11.40;63.00
14873;DHT22;7528;48.576;19.122;2023-10-09T09:06:00;11.30;63.70
14873;DHT22;7528;48.576;19.122;2023-10-09T09:11:08;11.30;62.80
14873;DHT22;7528;48.576;19.122;2023-10-09T09:16:14;11.30;62.40
14873;DHT22;7528;48.576;19.122;2023-10-09T09:21:18;11.50;62.70
14873;DHT22;7528;48.576;19.122;2023-10-09T09:26:35;11.50;62.20
14873;DHT22;7528;48.576;19.122;2023-10-09T09:31:52;11.60;62.90
14873;DHT22;7528;48.576;19.122;2023-10-09T09:36:57;11.60;61.30
14873;DHT22;7528;48.576;19.122;2023-10-09T09:42:01;11.60;61.70
14873;DHT22;7528;48.576;19.122;2023-10-09T09:47:08;11.60;61.70
14873;DHT22;7528;48.576;19.122;2023-10-09T09:52:13;11.60;62.10
14873;DHT22;7528;48.576;19.122;2023-10-09T09:57:23;11.70;62.10
14873;DHT22;7528;48.576;19.122;2023-10-09T10:02:30;11.80;60.70
14873;DHT22;7528;48.576;19.122;2023-10-09T10:07:35;11.80;58.90
14873;DHT22;7528;48.576;19.122;2023-10-09T10:12:52;11.70;59.90
14873;DHT22;7528;48.576;19.122;2023-10-09T10:18:09;11.80;62.30
14873;DHT22;7528;48.576;19.122;2023-10-09T10:23:20;11.80;62.40
14873;DHT22;7528;48.576;19.122;2023-10-09T10:28:28;11.70;65.30
14873;DHT22;7528;48.576;19.122;2023-10-09T10:34:03;11.70;65.20
14873;DHT22;7528;48.576;19.122;2023-10-09T10:39:09;11.80;66.90
14873;DHT22;7528;48.576;19.122;2023-10-09T10:44:13;11.80;67.70
14873;DHT22;7528;48.576;19.122;2023-10-09T10:49:30;11.80;68.30
14873;DHT22;7528;48.576;19.122;2023-10-09T10:54:38;11.90;68.80
14873;DHT22;7528;48.576;19.122;2023-10-09T11:00:12;11.80;67.50
14873;DHT22;7528;48.576;19.122;2023-10-09T11:05:35;11.80;67.40
14873;DHT22;7528;48.576;19.122;2023-10-09T11:10:40;11.70;68.10
14873;DHT22;7528;48.576;19.122;2023-10-09T11:15:53;11.80;68.60
14873;DHT22;7528;48.576;19.122;2023-10-09T11:21:15;11.70;67.70
14873;DHT22;7528;48.576;19.122;2023-10-09T11:26:33;11.70;68.20
14873;DHT22;7528;48.576;19.122;2023-10-09T11:31:57;11.80;68.50
14873;DHT22;7528;48.576;19.122;2023-10-09T11:37:02;11.90;69.70
14873;DHT22;7528;48.576;19.122;2023-10-09T11:42:07;11.90;68.50
14873;DHT22;7528;48.576;19.122;2023-10-09T11:47:11;11.90;68.30
14873;DHT22;7528;48.576;19.122;2023-10-09T11:52:25;11.80;68.40
14873;DHT22;7528;48.576;19.122;2023-10-09T11:57:40;11.80;69.60
14873;DHT22;7528;48.576;19.122;2023-10-09T12:02:44;11.90;70.50
14873;DHT22;7528;48.576;19.122;2023-10-09T12:07:46;12.00;68.90
14873;DHT22;7528;48.576;19.122;2023-10-09T12:12:50;12.00;69.00
14873;DHT22;7528;48.576;19.122;2023-10-09T12:17:54;12.00;69.30
14873;DHT22;7528;48.576;19.122;2023-10-09T12:22:57;11.90;67.90
14873;DHT22;7528;48.576;19.122;2023-10-09T12:28:00;11.80;67.70
14873;DHT22;7528;48.576;19.122;2023-10-09T12:33:04;11.90;69.20
14873;DHT22;7528;48.576;19.122;2023-10-09T12:38:08;11.90;70.20
14873;DHT22;7528;48.576;19.122;2023-10-09T12:43:11;11.90;70.10
14873;DHT22;7528;48.576;19.122;2023-10-09T12:48:19;11.90;70.40
14873;DHT22;7528;48.576;19.122;2023-10-09T12:53:21;11.80;68.20
14873;DHT22;7528;48.576;19.122;2023-10-09T12:58:23;11.70;68.80
14873;DHT22;7528;48.576;19.122;2023-10-09T13:03:29;11.60;69.60
14873;DHT22;7528;48.576;19.122;2023-10-09T13:08:33;11.50;70.10
14873;DHT22;7528;48.576;19.122;2023-10-09T13:13:38;11.50;69.50
14873;DHT22;7528;48.576;19.122;2023-10-09T13:18:45;11.50;70.60
14873;DHT22;7528;48.576;19.122;2023-10-09T13:23:51;11.60;71.00
14873;DHT22;7528;48.576;19.122;2023-10-09T13:28:56;11.60;70.20
14873;DHT22;7528;48.576;19.122;2023-10-09T13:34:00;11.70;69.50
14873;DHT22;7528;48.576;19.122;2023-10-09T13:39:07;11.80;69.40
14873;DHT22;7528;48.576;19.122;2023-10-09T13:44:23;11.90;70.40
14873;DHT22;7528;48.576;19.122;2023-10-09T13:49:29;11.80;70.00
14873;DHT22;7528;48.576;19.122;2023-10-09T13:54:31;11.70;70.30
14873;DHT22;7528;48.576;19.122;2023-10-09T13:59:42;11.70;70.40
14873;DHT22;7528;48.576;19.122;2023-10-09T14:04:51;11.70;72.90
14873;DHT22;7528;48.576;19.122;2023-10-09T14:09:53;11.60;71.20
14873;DHT22;7528;48.576;19.122;2023-10-09T14:15:08;11.60;71.90
14873;DHT22;7528;48.576;19.122;2023-10-09T14:20:13;11.50;71.10
14873;DHT22;7528;48.576;19.122;2023-10-09T14:25:31;11.50;72.00
14873;DHT22;7528;48.576;19.122;2023-10-09T14:30:34;11.50;72.40
14873;DHT22;7528;48.576;19.122;2023-10-09T14:35:44;11.50;71.70
14873;DHT22;7528;48.576;19.122;2023-10-09T14:40:47;11.50;72.40
14873;DHT22;7528;48.576;19.122;2023-10-09T14:45:49;11.50;72.40
14873;DHT22;7528;48.576;19.122;2023-10-09T14:50:56;11.50;72.10
14873;DHT22;7528;48.576;19.122;2023-10-09T14:56:05;11.40;72.00
14873;DHT22;7528;48.576;19.122;2023-10-09T15:01:10;11.30;72.00
14873;DHT22;7528;48.576;19.122;2023-10-09T15:06:15;11.40;72.80
14873;DHT22;7528;48.576;19.122;2023-10-09T15:11:21;11.30;72.30
14873;DHT22;7528;48.576;19.122;2023-10-09T15:16:25;11.30;71.80
14873;DHT22;7528;48.576;19.122;2023-10-09T15:21:32;11.30;72.40
14873;DHT22;7528;48.576;19.122;2023-10-09T15:26:34;11.30;72.00
14873;DHT22;7528;48.576;19.122;2023-10-09T15:31:37;11.30;73.00
14873;DHT22;7528;48.576;19.122;2023-10-09T15:36:42;11.30;72.70
14873;DHT22;7528;48.576;19.122;2023-10-09T15:41:45;11.20;73.00
14873;DHT22;7528;48.576;19.122;2023-10-09T15:46:47;11.20;72.50
14873;DHT22;7528;48.576;19.122;2023-10-09T15:51:51;11.20;72.20
14873;DHT22;7528;48.576;19.122;2023-10-09T15:56:54;11.20;72.30
14873;DHT22;7528;48.576;19.122;2023-10-09T16:01:56;11.20;72.50
14873;DHT22;7528;48.576;19.122;2023-10-09T16:07:01;11.20;72.60
14873;DHT22;7528;48.576;19.122;2023-10-09T16:12:06;11.20;72.60
14873;DHT22;7528;48.576;19.122;2023-10-09T16:17:09;11.20;72.60
14873;DHT22;7528;48.576;19.122;2023-10-09T16:22:14;11.20;73.30
14873;DHT22;7528;48.576;19.122;2023-10-09T16:27:18;11.10;73.30
14873;DHT22;7528;48.576;19.122;2023-10-09T16:32:24;11.10;72.90
14873;DHT22;7528;48.576;19.122;2023-10-09T16:37:28;11.10;73.30
14873;DHT22;7528;48.576;19.122;2023-10-09T16:42:30;11.10;73.60
14873;DHT22;7528;48.576;19.122;2023-10-09T16:47:36;11.10;74.50
14873;DHT22;7528;48.576;19.122;2023-10-09T16:52:41;11.10;74.50
14873;DHT22;7528;48.576;19.122;2023-10-09T16:57:44;11.00;75.00
14873;DHT22;7528;48.576;19.122;2023-10-09T17:02:47;11.10;74.90
14873;DHT22;7528;48.576;19.122;2023-10-09T17:07:51;11.10;74.80
14873;DHT22;7528;48.576;19.122;2023-10-09T17:12:54;11.20;74.80
14873;DHT22;7528;48.576;19.122;2023-10-09T17:17:57;11.20;74.70
14873;DHT22;7528;48.576;19.122;2023-10-09T17:23:02;11.20;74.80
14873;DHT22;7528;48.576;19.122;2023-10-09T17:28:05;11.20;75.10
14873;DHT22;7528;48.576;19.122;2023-10-09T17:33:07;11.20;75.20
14873;DHT22;7528;48.576;19.122;2023-10-09T17:38:12;11.30;74.80
14873;DHT22;7528;48.576;19.122;2023-10-09T17:43:15;11.30;74.90
14873;DHT22;7528;48.576;19.122;2023-10-09T17:48:18;11.30;74.80
14873;DHT22;7528;48.576;19.122;2023-10-09T17:53:22;11.30;75.30
14873;DHT22;7528;48.576;19.122;2023-10-09T17:58:25;11.30;74.80
14873;DHT22;7528;48.576;19.122;2023-10-09T18:03:27;11.30;74.90
14873;DHT22;7528;48.576;19.122;2023-10-09T18:08:32;11.30;74.70
14873;DHT22;7528;48.576;19.122;2023-10-09T18:13:37;11.30;74.80
14873;DHT22;7528;48.576;19.122;2023-10-09T18:18:41;11.30;74.90
14873;DHT22;7528;48.576;19.122;2023-10-09T18:23:45;11.30;75.10
14873;DHT22;7528;48.576;19.122;2023-10-09T18:28:48;11.30;75.30
14873;DHT22;7528;48.576;19.122;2023-10-09T18:33:51;11.30;75.20
14873;DHT22;7528;48.576;19.122;2023-10-09T18:38:55;11.40;75.30
14873;DHT22;7528;48.576;19.122;2023-10-09T18:43:57;11.40;75.10
14873;DHT22;7528;48.576;19.122;2023-10-09T18:49:01;11.30;75.10
14873;DHT22;7528;48.576;19.122;2023-10-09T18:54:06;11.30;75.50
14873;DHT22;7528;48.576;19.122;2023-10-09T18:59:08;11.30;75.80
14873;DHT22;7528;48.576;19.122;2023-10-09T19:04:11;11.30;75.30
14873;DHT22;7528;48.576;19.122;2023-10-09T19:09:15;11.30;75.60
14873;DHT22;7528;48.576;19.122;2023-10-09T19:14:21;11.40;75.70
14873;DHT22;7528;48.576;19.122;2023-10-09T19:19:23;11.40;75.40
14873;DHT22;7528;48.576;19.122;2023-10-09T19:24:28;11.40;76.10
14873;DHT22;7528;48.576;19.122;2023-10-09T19:29:31;11.40;75.90
14873;DHT22;7528;48.576;19.122;2023-10-09T19:34:34;11.40;76.20
14873;DHT22;7528;48.576;19.122;2023-10-09T19:39:37;11.40;76.50
14873;DHT22;7528;48.576;19.122;2023-10-09T19:44:42;11.30;76.40
14873;DHT22;7528;48.576;19.122;2023-10-09T19:49:45;11.20;76.80
14873;DHT22;7528;48.576;19.122;2023-10-09T19:54:49;11.20;76.50
14873;DHT22;7528;48.576;19.122;2023-10-09T19:59:51;11.30;76.00
14873;DHT22;7528;48.576;19.122;2023-10-09T20:04:55;11.30;76.10
14873;DHT22;7528;48.576;19.122;2023-10-09T20:10:02;11.40;76.20
14873;DHT22;7528;48.576;19.122;2023-10-09T20:15:08;11.40;76.10
14873;DHT22;7528;48.576;19.122;2023-10-09T20:20:14;11.40;75.70
14873;DHT22;7528;48.576;19.122;2023-10-09T20:25:18;11.40;76.00
14873;DHT22;7528;48.576;19.122;2023-10-09T20:30:22;11.40;76.10
14873;DHT22;7528;48.576;19.122;2023-10-09T20:35:25;11.30;76.30
14873;DHT22;7528;48.576;19.122;2023-10-09T20:40:29;11.40;76.40
14873;DHT22;7528;48.576;19.122;2023-10-09T20:45:32;11.40;75.50
14873;DHT22;7528;48.576;19.122;2023-10-09T20:50:34;11.40;75.60
14873;DHT22;7528;48.576;19.122;2023-10-09T20:55:41;11.30;76.00
14873;DHT22;7528;48.576;19.122;2023-10-09T21:00:44;11.40;75.90
14873;DHT22;7528;48.576;19.122;2023-10-09T21:05:46;11.40;76.50
14873;DHT22;7528;48.576;19.122;2023-10-09T21:10:50;11.40;76.70
14873;DHT22;7528;48.576;19.122;2023-10-09T21:15:53;11.50;76.80
14873;DHT22;7528;48.576;19.122;2023-10-09T21:20:56;11.50;76.20
14873;DHT22;7528;48.576;19.122;2023-10-09T21:26:00;11.50;76.10
14873;DHT22;7528;48.576;19.122;2023-10-09T21:31:02;11.40;76.50
14873;DHT22;7528;48.576;19.122;2023-10-09T21:36:06;11.50;76.90
14873;DHT22;7528;48.576;19.122;2023-10-09T21:41:11;11.40;76.80
14873;DHT22;7528;48.576;19.122;2023-10-09T21:46:13;11.40;77.00
14873;DHT22;7528;48.576;19.122;2023-10-09T21:51:16;11.40;76.70
14873;DHT22;7528;48.576;19.122;2023-10-09T21:56:20;11.50;76.60
14873;DHT22;7528;48.576;19.122;2023-10-09T22:01:23;11.50;76.60
14873;DHT22;7528;48.576;19.122;2023-10-09T22:06:28;11.50;76.70
14873;DHT22;7528;48.576;19.122;2023-10-09T22:11:32;11.50;76.70
14873;DHT22;7528;48.576;19.122;2023-10-09T22:16:34;11.40;76.70
14873;DHT22;7528;48.576;19.122;2023-10-09T22:21:39;11.40;77.20
14873;DHT22;7528;48.576;19.122;2023-10-09T22:26:43;11.40;77.10
14873;DHT22;7528;48.576;19.122;2023-10-09T22:31:46;11.40;77.40
14873;DHT22;7528;48.576;19.122;2023-10-09T22:36:48;11.30;76.30
14873;DHT22;7528;48.576;19.122;2023-10-09T22:41:56;11.30;75.90
14873;DHT22;7528;48.576;19.122;2023-10-09T22:46:59;11.30;76.60
14873;DHT22;7528;48.576;19.122;2023-10-09T22:52:08;11.30;76.80
14873;DHT22;7528;48.576;19.122;2023-10-09T22:57:15;11.30;76.70
14873;DHT22;7528;48.576;19.122;2023-10-09T23:02:18;11.40;76.90
14873;DHT22;7528;48.576;19.122;2023-10-09T23:07:43;11.40;77.10
14873;DHT22;7528;48.576;19.122;2023-10-09T23:13:01;11.40;76.80
14873;DHT22;7528;48.576;19.122;2023-10-09T23:18:16;11.40;76.50
14873;DHT22;7528;48.576;19.122;2023-10-09T23:23:33;11.40;76.20
14873;DHT22;7528;48.576;19.122;2023-10-09T23:28:39;11.40;77.20
14873;DHT22;7528;48.576;19.122;2023-10-09T23:33:52;11.40;77.00
14873;DHT22;7528;48.576;19.122;2023-10-09T23:38:56;11.30;77.10
14873;DHT22;7528;48.576;19.122;2023-10-09T23:44:14;11.30;77.40
14873;DHT22;7528;48.576;19.122;2023-10-09T23:49:21;11.40;77.50
14873;DHT22;7528;48.576;19.122;2023-10-09T23:54:25;11.50;76.90
14873;DHT22;7528;48.576;19.122;2023-10-09T23:59:29;11.50;76.90
